Pagina principale
METAR-TAF:

METAR-TAF

Aeroporti :

Aeroporto Internazionale di Teheran-Mehrabad

Teheran, Iran

latitudine: 35-41N, longitudine: 051-21E, altezza: 1204 m

Osservazione

Il bollettino è stato emesso 40 minuti fa, alle 02:30 UTC
Vento 4 kt da ovest/nord-ovest
Temperature 13°C
Umidità 58%
Pressione 1020 hPa
Visibilità 10 km o più
nessuna nube inferiore a 1500 m e nessun cumulonembo

METAR: OIII 230230Z 30004KT CAVOK 13/05 Q1020 A3013

Ora: 06:40 (03:10 UTC)

Previsione

Il bollettino è stato emesso 3 ore e 50 minuti fa, alle 23:20 UTC
Previsione valida dal 23 alle 00 UTC al 24 alle 06 UTC
Vento 8 kt da nord/nord-ovest
Visibilità: 7000 m
Temporaneamente
dal 23 alle 09 UTC al 23 alle 15 UTC
Vento 14 kt da ovest
Poco nuvoloso ad un'altezza di 3500 ft, Cumulo congesto.
Nubi sparse ad un'altezza di 4000 ft

TAF: OIII 222320Z 2300/2406 34004MPS 7000 NSC TEMPO 2309/2315 26007MPS FEW035TCU SCT040

Osservazioni e previsioni meteorologiche di più di 4000 aeroporti (messaggi METAR e TAF).

Le stazioni disponibili sono rappresentate dai dischi gialli e rossi sulla carta.

Puntare il mouse per vedere il nome della stazione.

Clicca sopra per visualizzare le osservazioni e previsioni meteorologiche.

Per cambiare la mappa : fare clic sui pulsanti verdi con una croce nera per ingrandire, il pulsante verde con un trattino per diminuire, o sulla freccia verde per le mappe adiacenti.


METAR-TAF: